Arabi, Louisiana
Current Conditions -  °F | °C
As of 3:35 PM on Saturday 22 Nov 2014 (Local Time) from KVSH Reporting Station
Broken Clouds Broken Clouds  
Wind Chill: 17°   Ceiling: 5000
Heat Index: 17°   Visibility: 10mi
Dew Point: 13°   Wind: 5mph
Humidity: 77%   Direction: 50°NE
Pressure: 30.08"   Gusts: NA
Location:  29.95°N, 90.01°W
Report Text: KVSH 222135Z AUTO 05004KT 10SM BKN050 17/13 A3008 RMK AO1
Loading
Personal Weather Stations






























Interactive Weather Map New forecast layout! Learn more

10-Day Weather Forecast

Advertisements
Track Severe Weather on mobile